Time;durP1;ratioP1;P1;durP2;ratioP2;P2;SDS_P1;SDS_P2;PMS_P1;PMS_P2;Temp;Humidity;BMP_temperature;BMP_pressure;BME280_temperature;BME280_humidity;BME280_pressure;Samples;Min_cycle;Max_cycle;Signal;HPM_P1;HPM_P2
2022/03/12 00:01:26;;;;;;;12.80;5.40;;;;;;;;;;5120480;28;20462;-72
2022/03/12 00:04:09;;;;;;;10.67;6.07;;;;;;;;;;5120571;28;20450;-72
2022/03/12 00:06:38;;;;;;;12.00;6.30;;;;;;;;;;5120368;28;20887;-71
2022/03/12 00:09:09;;;;;;;11.17;5.87;;;;;;;;;;5119943;28;20478;-73
2022/03/12 00:11:40;;;;;;;14.73;5.80;;;;;;;;;;5120875;28;20950;-72
2022/03/12 00:14:09;;;;;;;11.30;5.30;;;;;;;;;;5119921;28;20904;-72
2022/03/12 00:16:37;;;;;;;9.67;5.57;;;;;;;;;;5119618;28;20465;-72
2022/03/12 00:19:09;;;;;;;10.50;6.50;;;;;;;;;;5120580;28;20461;-71
2022/03/12 00:21:41;;;;;;;10.53;6.57;;;;;;;;;;5120366;28;20498;-73
2022/03/12 00:24:15;;;;;;;10.53;6.33;;;;;;;;;;5120352;28;20942;-71
2022/03/12 00:26:46;;;;;;;11.07;6.13;;;;;;;;;;5120181;28;20521;-71
2022/03/12 00:29:20;;;;;;;6.87;4.37;;;;;;;;;;5119726;28;20781;-71
2022/03/12 00:31:50;;;;;;;8.97;5.50;;;;;;;;;;5118242;28;20454;-71
2022/03/12 00:34:18;;;;;;;8.60;5.30;;;;;;;;;;5097947;28;20894;-72
2022/03/12 00:36:48;;;;;;;11.27;6.37;;;;;;;;;;5099128;28;20447;-72
2022/03/12 00:39:16;;;;;;;13.90;6.63;;;;;;;;;;5099045;28;20475;-72
2022/03/12 00:41:47;;;;;;;10.80;5.57;;;;;;;;;;5098775;28;20714;-71
2022/03/12 00:44:17;;;;;;;8.33;4.77;;;;;;;;;;5098260;28;20533;-71
2022/03/12 00:46:45;;;;;;;9.20;5.60;;;;;;;;;;5098457;28;20716;-71
2022/03/12 00:49:13;;;;;;;10.00;6.17;;;;;;;;;;5098677;28;20479;-72
2022/03/12 00:51:41;;;;;;;9.30;5.47;;;;;;;;;;5098598;28;20542;-72
2022/03/12 00:54:11;;;;;;;8.90;5.77;;;;;;;;;;5098541;28;20448;-71
2022/03/12 00:56:39;;;;;;;6.30;3.97;;;;;;;;;;5097916;28;20573;-72
2022/03/12 00:59:09;;;;;;;9.47;5.80;;;;;;;;;;5098306;28;20459;-72
2022/03/12 01:01:37;;;;;;;10.73;6.10;;;;;;;;;;5097450;28;20455;-71
2022/03/12 01:04:09;;;;;;;9.10;5.00;;;;;;;;;;5099098;28;20589;-72
2022/03/12 01:06:37;;;;;;;11.10;5.67;;;;;;;;;;5102375;28;20471;-72
2022/03/12 01:09:05;;;;;;;9.73;5.50;;;;;;;;;;5098041;28;20515;-71
2022/03/12 01:11:35;;;;;;;10.77;6.37;;;;;;;;;;5098371;28;20942;-71
2022/03/12 01:14:03;;;;;;;11.63;5.43;;;;;;;;;;5098659;28;20447;-72
2022/03/12 01:16:30;;;;;;;9.53;5.30;;;;;;;;;;5097891;28;20513;-72
2022/03/12 01:18:58;;;;;;;7.97;4.47;;;;;;;;;;5097901;28;20531;-72
2022/03/12 01:21:26;;;;;;;9.23;5.60;;;;;;;;;;5097241;28;20479;-72
2022/03/12 01:23:54;;;;;;;8.50;4.80;;;;;;;;;;5099039;28;20455;-71
2022/03/12 01:26:23;;;;;;;10.93;6.00;;;;;;;;;;5097875;28;20467;-71
2022/03/12 01:28:52;;;;;;;12.30;5.30;;;;;;;;;;5111025;28;20462;-71
2022/03/12 01:31:20;;;;;;;7.37;5.57;;;;;;;;;;5118190;28;20457;-72
2022/03/12 01:33:48;;;;;;;11.60;5.30;;;;;;;;;;5108851;28;20920;-72
2022/03/12 01:36:17;;;;;;;10.90;5.90;;;;;;;;;;5117836;28;20458;-72
2022/03/12 01:38:55;;;;;;;8.63;5.33;;;;;;;;;;5118442;28;20439;-72
2022/03/12 01:41:24;;;;;;;9.93;6.10;;;;;;;;;;5119117;28;20457;-72
2022/03/12 01:43:54;;;;;;;11.10;6.90;;;;;;;;;;5118159;28;20735;-72
2022/03/12 01:46:29;;;;;;;7.37;5.17;;;;;;;;;;5118603;28;20451;-72
2022/03/12 01:48:58;;;;;;;8.37;5.33;;;;;;;;;;5114136;28;20517;-72
2022/03/12 01:51:26;;;;;;;10.47;5.57;;;;;;;;;;5097978;28;20462;-72
2022/03/12 01:53:54;;;;;;;12.30;5.80;;;;;;;;;;5097771;28;20451;-72
2022/03/12 01:56:22;;;;;;;8.63;5.07;;;;;;;;;;5098877;28;20466;-72
2022/03/12 01:58:50;;;;;;;9.30;5.67;;;;;;;;;;5098847;28;20782;-72
2022/03/12 02:01:20;;;;;;;11.17;5.70;;;;;;;;;;5107592;28;20458;-72
2022/03/12 02:03:48;;;;;;;9.60;5.30;;;;;;;;;;5120385;28;20451;-72
2022/03/12 02:06:22;;;;;;;7.60;4.80;;;;;;;;;;5100335;28;20463;-71
2022/03/12 02:08:50;;;;;;;9.77;5.33;;;;;;;;;;5098540;28;20490;-72
2022/03/12 02:11:21;;;;;;;7.40;4.53;;;;;;;;;;5098087;28;20486;-71
2022/03/12 02:13:52;;;;;;;7.57;4.60;;;;;;;;;;5098504;28;20443;-71
2022/03/12 02:16:21;;;;;;;11.03;5.97;;;;;;;;;;5098021;28;20549;-71
2022/03/12 02:18:49;;;;;;;10.00;5.00;;;;;;;;;;5115770;28;20911;-72
2022/03/12 02:21:17;;;;;;;9.47;5.80;;;;;;;;;;5102265;28;20459;-73
2022/03/12 02:23:50;;;;;;;9.50;5.53;;;;;;;;;;5110912;28;20538;-72
2022/03/12 02:26:18;;;;;;;9.43;5.60;;;;;;;;;;5118439;28;20458;-72
2022/03/12 02:28:46;;;;;;;7.60;5.07;;;;;;;;;;5117663;28;20726;-72
2022/03/12 02:31:14;;;;;;;6.70;4.60;;;;;;;;;;5117975;28;20677;-72
2022/03/12 02:33:44;;;;;;;8.43;5.10;;;;;;;;;;5108708;28;20526;-72
2022/03/12 02:36:13;;;;;;;8.10;5.43;;;;;;;;;;5118071;28;20473;-71
2022/03/12 02:38:42;;;;;;;9.37;6.30;;;;;;;;;;5100557;28;20456;-71
2022/03/12 02:41:11;;;;;;;8.77;5.43;;;;;;;;;;5097764;28;20448;-71
2022/03/12 02:43:44;;;;;;;10.17;6.03;;;;;;;;;;5106139;28;20553;-71
2022/03/12 02:46:12;;;;;;;15.63;6.20;;;;;;;;;;5098924;28;20448;-72
2022/03/12 02:48:42;;;;;;;9.93;5.27;;;;;;;;;;5101153;28;20549;-72
2022/03/12 02:51:11;;;;;;;8.67;5.17;;;;;;;;;;5117404;28;20758;-72
2022/03/12 02:53:39;;;;;;;8.80;5.80;;;;;;;;;;5116302;28;20455;-71
2022/03/12 02:56:07;;;;;;;10.07;5.07;;;;;;;;;;5117891;28;20455;-71
2022/03/12 02:58:37;;;;;;;8.93;4.67;;;;;;;;;;5121558;28;20469;-72
2022/03/12 03:01:06;;;;;;;11.93;5.43;;;;;;;;;;5113650;28;20504;-71
2022/03/12 03:03:35;;;;;;;8.93;5.43;;;;;;;;;;5100754;28;20462;-71
2022/03/12 03:06:03;;;;;;;10.33;5.53;;;;;;;;;;5118701;28;20450;-71
2022/03/12 03:08:30;;;;;;;10.07;5.87;;;;;;;;;;5112848;28;20444;-71
2022/03/12 03:10:59;;;;;;;11.63;5.40;;;;;;;;;;5101156;28;20515;-71
2022/03/12 03:13:35;;;;;;;12.13;5.77;;;;;;;;;;5102217;28;20483;-71
2022/03/12 03:16:06;;;;;;;7.83;4.87;;;;;;;;;;5101913;28;20484;-71
2022/03/12 03:18:41;;;;;;;7.90;4.87;;;;;;;;;;5105193;28;20466;-72
2022/03/12 03:21:11;;;;;;;12.50;5.13;;;;;;;;;;5121618;28;20491;-71
2022/03/12 03:23:39;;;;;;;7.50;5.30;;;;;;;;;;5113916;28;20458;-71
2022/03/12 03:26:07;;;;;;;13.27;5.87;;;;;;;;;;5102116;28;20451;-72
2022/03/12 03:28:34;;;;;;;9.20;5.20;;;;;;;;;;5101634;28;20898;-72
2022/03/12 03:31:06;;;;;;;9.50;5.07;;;;;;;;;;5101264;28;20543;-72
2022/03/12 03:33:34;;;;;;;12.13;5.20;;;;;;;;;;5117171;28;20467;-72
2022/03/12 03:36:02;;;;;;;7.53;4.80;;;;;;;;;;5102355;28;20532;-72
2022/03/12 03:38:30;;;;;;;14.47;6.27;;;;;;;;;;5113706;28;20520;-72
2022/03/12 03:40:58;;;;;;;6.77;4.70;;;;;;;;;;5121833;28;20451;-72
2022/03/12 03:43:26;;;;;;;10.03;6.20;;;;;;;;;;5121979;28;20505;-72
2022/03/12 03:45:55;;;;;;;10.57;5.17;;;;;;;;;;5108588;28;20459;-72
2022/03/12 03:48:25;;;;;;;7.73;4.33;;;;;;;;;;5114875;28;20469;-72
2022/03/12 03:50:53;;;;;;;5.00;3.93;;;;;;;;;;5121699;28;20509;-72
2022/03/12 03:53:27;;;;;;;10.70;6.27;;;;;;;;;;5116155;28;20455;-72
2022/03/12 03:56:01;;;;;;;7.10;4.57;;;;;;;;;;5100556;28;20486;-72
2022/03/12 03:58:34;;;;;;;8.83;5.03;;;;;;;;;;5100870;28;20481;-73
2022/03/12 04:01:03;;;;;;;8.73;5.53;;;;;;;;;;5102895;28;20467;-72
2022/03/12 04:03:34;;;;;;;7.23;4.73;;;;;;;;;;5109998;28;20444;-72
2022/03/12 04:06:03;;;;;;;8.03;4.03;;;;;;;;;;5100635;28;20460;-71
2022/03/12 04:08:35;;;;;;;7.97;4.80;;;;;;;;;;5119757;28;20443;-71
2022/03/12 04:11:04;;;;;;;11.53;5.40;;;;;;;;;;5121853;28;20498;-72
2022/03/12 04:13:32;;;;;;;9.70;5.70;;;;;;;;;;5101862;28;20482;-72
2022/03/12 04:16:01;;;;;;;6.13;2.97;;;;;;;;;;5100698;28;20478;-73
2022/03/12 04:18:30;;;;;;;9.00;4.97;;;;;;;;;;5108276;28;20526;-71
2022/03/12 04:21:00;;;;;;;6.47;3.87;;;;;;;;;;5103002;28;20471;-72
2022/03/12 04:23:28;;;;;;;7.50;4.90;;;;;;;;;;5100380;28;20467;-72
2022/03/12 04:25:57;;;;;;;7.30;5.00;;;;;;;;;;5099118;28;20460;-71
2022/03/12 04:28:26;;;;;;;7.10;4.40;;;;;;;;;;5099129;28;20443;-72
2022/03/12 04:30:54;;;;;;;6.30;3.60;;;;;;;;;;5098562;28;20487;-71
2022/03/12 04:33:22;;;;;;;9.13;4.73;;;;;;;;;;5100198;28;20448;-73
2022/03/12 04:35:50;;;;;;;7.67;4.10;;;;;;;;;;5110076;28;20473;-72
2022/03/12 04:38:22;;;;;;;9.30;5.40;;;;;;;;;;5121732;28;20462;-72
2022/03/12 04:40:55;;;;;;;8.27;4.40;;;;;;;;;;5117919;28;20530;-71
2022/03/12 04:43:24;;;;;;;6.10;4.03;;;;;;;;;;5109799;28;20451;-72
2022/03/12 04:45:52;;;;;;;11.40;5.17;;;;;;;;;;5116528;28;20471;-72
2022/03/12 04:48:22;;;;;;;7.50;4.27;;;;;;;;;;5104765;28;20534;-72
2022/03/12 04:50:50;;;;;;;9.70;4.87;;;;;;;;;;5119728;28;20533;-72
2022/03/12 04:53:21;;;;;;;7.13;5.00;;;;;;;;;;5119495;28;20447;-72
2022/03/12 04:55:49;;;;;;;7.17;4.17;;;;;;;;;;5117995;28;20907;-72
2022/03/12 04:58:17;;;;;;;8.27;4.83;;;;;;;;;;5105884;28;20443;-72
2022/03/12 05:00:53;;;;;;;9.77;4.90;;;;;;;;;;5109746;28;20518;-72
2022/03/12 05:03:22;;;;;;;7.47;3.97;;;;;;;;;;5100226;28;20451;-72
2022/03/12 05:06:03;;;;;;;8.30;4.80;;;;;;;;;;5100384;28;20514;-71
2022/03/12 05:08:36;;;;;;;12.93;5.13;;;;;;;;;;5116197;28;20450;-70
2022/03/12 05:11:05;;;;;;;6.00;4.10;;;;;;;;;;5110619;28;20486;-70
2022/03/12 05:13:33;;;;;;;8.60;5.57;;;;;;;;;;5099732;28;20444;-72
2022/03/12 05:16:03;;;;;;;5.87;4.50;;;;;;;;;;5098185;28;20463;-72
2022/03/12 05:18:34;;;;;;;7.87;4.43;;;;;;;;;;5098282;28;20475;-72
2022/03/12 05:21:01;;;;;;;6.70;4.27;;;;;;;;;;5097575;28;20746;-72
2022/03/12 05:23:31;;;;;;;5.73;4.20;;;;;;;;;;5098184;28;20824;-72
2022/03/12 05:26:05;;;;;;;11.23;4.70;;;;;;;;;;5097955;28;20459;-72
2022/03/12 05:28:38;;;;;;;9.37;4.80;;;;;;;;;;5098027;28;20534;-72
2022/03/12 05:31:06;;;;;;;10.00;5.53;;;;;;;;;;5098147;28;20907;-71
2022/03/12 05:33:35;;;;;;;7.20;4.47;;;;;;;;;;5098171;28;20490;-71
2022/03/12 05:36:06;;;;;;;7.73;3.97;;;;;;;;;;5097078;28;20754;-72
2022/03/12 05:38:36;;;;;;;6.73;3.60;;;;;;;;;;5097963;28;20454;-71
2022/03/12 05:41:44;;;;;;;12.27;6.70;;;;;;;;;;5097392;28;20483;-72
2022/03/12 05:44:13;;;;;;;10.50;4.67;;;;;;;;;;5097634;28;20478;-71
2022/03/12 05:46:41;;;;;;;7.03;4.70;;;;;;;;;;5097604;28;20456;-71
2022/03/12 05:49:17;;;;;;;9.83;4.63;;;;;;;;;;5097870;28;20517;-71
2022/03/12 05:51:46;;;;;;;6.30;4.73;;;;;;;;;;5097530;28;20480;-71
2022/03/12 05:54:25;;;;;;;7.33;3.77;;;;;;;;;;5097802;28;20459;-71
2022/03/12 05:56:56;;;;;;;7.97;4.67;;;;;;;;;;5097667;28;20471;-71
2022/03/12 05:59:24;;;;;;;5.10;3.57;;;;;;;;;;5097623;28;20447;-71
2022/03/12 06:01:52;;;;;;;8.27;5.00;;;;;;;;;;5096941;28;20547;-71
2022/03/12 06:04:26;;;;;;;7.00;5.33;;;;;;;;;;5097666;28;20451;-70
2022/03/12 06:06:54;;;;;;;7.10;4.47;;;;;;;;;;5096610;28;20467;-71
2022/03/12 06:09:29;;;;;;;10.23;4.73;;;;;;;;;;5097553;28;21090;-72
2022/03/12 06:12:02;;;;;;;9.23;4.97;;;;;;;;;;5097137;28;20985;-70
2022/03/12 06:14:30;;;;;;;18.23;5.30;;;;;;;;;;5096904;28;20464;-72
2022/03/12 06:19:46;;;;;;;7.80;5.50;;;;;;;;;;5096894;28;20424;-72
2022/03/12 06:22:18;;;;;;;6.43;4.20;;;;;;;;;;5107574;28;20514;-70
2022/03/12 06:24:46;;;;;;;7.20;4.70;;;;;;;;;;5107062;28;20449;-71
2022/03/12 06:27:29;;;;;;;5.90;4.20;;;;;;;;;;5113753;28;20938;-72
2022/03/12 06:30:03;;;;;;;6.50;4.00;;;;;;;;;;5098932;28;20479;-72
2022/03/12 06:32:36;;;;;;;7.67;4.50;;;;;;;;;;5101488;28;20511;-72
2022/03/12 06:35:10;;;;;;;11.23;5.03;;;;;;;;;;5116977;28;20443;-71
2022/03/12 06:37:38;;;;;;;9.93;5.60;;;;;;;;;;5115866;28;20545;-71
2022/03/12 06:40:08;;;;;;;7.60;4.57;;;;;;;;;;5116733;28;21097;-72
2022/03/12 06:42:36;;;;;;;8.07;4.47;;;;;;;;;;5110091;28;20450;-71
2022/03/12 06:45:06;;;;;;;10.77;5.43;;;;;;;;;;5109577;28;20453;-71
2022/03/12 06:47:35;;;;;;;6.40;4.07;;;;;;;;;;5102668;28;20941;-71
2022/03/12 06:50:03;;;;;;;9.87;5.13;;;;;;;;;;5095945;28;20447;-71
2022/03/12 06:52:31;;;;;;;8.30;4.87;;;;;;;;;;5095910;28;20928;-71
2022/03/12 06:54:59;;;;;;;7.30;4.27;;;;;;;;;;5098240;28;20801;-72
2022/03/12 06:57:35;;;;;;;8.70;4.90;;;;;;;;;;5108489;28;20454;-71
2022/03/12 07:00:03;;;;;;;6.73;4.40;;;;;;;;;;5099912;28;20543;-71
2022/03/12 07:02:35;;;;;;;6.60;4.63;;;;;;;;;;5096855;28;20444;-71
2022/03/12 07:05:03;;;;;;;8.53;4.00;;;;;;;;;;5095607;28;20930;-71
2022/03/12 07:07:34;;;;;;;9.77;5.70;;;;;;;;;;5113085;28;20894;-71
2022/03/12 07:10:04;;;;;;;6.77;4.43;;;;;;;;;;5113126;28;20528;-72
2022/03/12 07:12:38;;;;;;;8.80;4.77;;;;;;;;;;5109587;28;20465;-71
2022/03/12 07:15:07;;;;;;;5.30;3.37;;;;;;;;;;5097230;28;20483;-71
2022/03/12 07:17:40;;;;;;;6.43;3.33;;;;;;;;;;5096661;28;20751;-71
2022/03/12 07:20:09;;;;;;;6.47;3.23;;;;;;;;;;5108670;28;20878;-70
2022/03/12 07:22:36;;;;;;;10.57;4.17;;;;;;;;;;5096161;28;20455;-71
2022/03/12 07:25:04;;;;;;;10.97;5.50;;;;;;;;;;5113771;28;20879;-72
2022/03/12 07:27:32;;;;;;;9.40;4.20;;;;;;;;;;5114178;28;20480;-72
2022/03/12 07:30:01;;;;;;;5.70;3.40;;;;;;;;;;5100945;28;20492;-72
2022/03/12 07:32:59;;;;;;;6.70;4.57;;;;;;;;;;5095420;28;20859;-71
2022/03/12 07:35:42;;;;;;;5.90;4.60;;;;;;;;;;5103955;28;20785;-72
2022/03/12 07:38:11;;;;;;;6.70;3.13;;;;;;;;;;5093571;28;20455;-72
2022/03/12 07:40:40;;;;;;;7.10;4.27;;;;;;;;;;5095495;28;20717;-72
2022/03/12 07:43:08;;;;;;;8.23;4.53;;;;;;;;;;5105890;28;20745;-72
2022/03/12 07:45:35;;;;;;;8.93;4.27;;;;;;;;;;5098731;28;20736;-72
2022/03/12 07:48:07;;;;;;;8.70;4.47;;;;;;;;;;5112728;28;20461;-72
2022/03/12 07:50:37;;;;;;;4.90;3.50;;;;;;;;;;5101936;28;20483;-72
2022/03/12 07:53:07;;;;;;;5.73;3.57;;;;;;;;;;5099313;28;20448;-72
2022/03/12 07:55:37;;;;;;;6.33;4.63;;;;;;;;;;5101550;28;20524;-71
2022/03/12 07:58:09;;;;;;;4.80;3.20;;;;;;;;;;5104839;28;20747;-72
2022/03/12 08:00:42;;;;;;;6.70;3.70;;;;;;;;;;5099972;28;20447;-70
2022/03/12 08:03:10;;;;;;;8.17;3.80;;;;;;;;;;5100642;28;20455;-72
2022/03/12 08:05:38;;;;;;;7.37;4.10;;;;;;;;;;5099304;28;20460;-71
2022/03/12 08:08:06;;;;;;;6.10;4.37;;;;;;;;;;5100741;28;20455;-71
2022/03/12 08:11:24;;;;;;;5.30;3.23;;;;;;;;;;5119306;27;20462;-71
2022/03/12 08:13:24;;;;;;;8.50;4.40;;;;;;;;;;5119236;28;20459;-71
2022/03/12 08:15:53;;;;;;;11.30;5.30;;;;;;;;;;5120627;28;20459;-70
2022/03/12 08:18:23;;;;;;;7.97;4.07;;;;;;;;;;5121455;28;20462;-70
2022/03/12 08:20:51;;;;;;;6.63;3.50;;;;;;;;;;5114715;28;20784;-71
2022/03/12 08:23:19;;;;;;;8.00;4.80;;;;;;;;;;5108226;28;20479;-72
2022/03/12 08:25:50;;;;;;;7.50;4.23;;;;;;;;;;5117105;28;20451;-71
2022/03/12 08:28:20;;;;;;;7.90;4.60;;;;;;;;;;5105547;28;20474;-72
2022/03/12 08:30:53;;;;;;;7.10;4.50;;;;;;;;;;5103661;28;20564;-71
2022/03/12 08:33:24;;;;;;;8.40;3.93;;;;;;;;;;5104326;28;20780;-72
2022/03/12 08:35:53;;;;;;;8.57;4.90;;;;;;;;;;5107139;28;20488;-71
2022/03/12 08:38:22;;;;;;;7.10;3.93;;;;;;;;;;5119015;28;20483;-71
2022/03/12 08:40:53;;;;;;;5.00;3.43;;;;;;;;;;5112958;28;20447;-70
2022/03/12 08:43:33;;;;;;;5.07;3.67;;;;;;;;;;5098900;28;20531;-72
2022/03/12 08:48:48;;;;;;;10.90;4.53;;;;;;;;;;5103610;28;20557;-71
2022/03/12 08:51:16;;;;;;;5.90;4.07;;;;;;;;;;5117886;28;20986;-72
2022/03/12 08:53:44;;;;;;;7.57;4.23;;;;;;;;;;5113576;28;20443;-72
2022/03/12 08:56:12;;;;;;;5.90;4.10;;;;;;;;;;5101636;28;20474;-71
2022/03/12 08:58:41;;;;;;;6.40;4.30;;;;;;;;;;5113563;28;21028;-71
2022/03/12 09:01:13;;;;;;;9.43;4.20;;;;;;;;;;5097045;28;20529;-71
2022/03/12 09:03:44;;;;;;;9.00;3.83;;;;;;;;;;5106923;28;20471;-72
2022/03/12 09:06:12;;;;;;;10.53;5.20;;;;;;;;;;5117062;28;20465;-71
2022/03/12 09:08:40;;;;;;;9.97;5.17;;;;;;;;;;5105032;28;20535;-71
2022/03/12 09:11:13;;;;;;;5.30;3.40;;;;;;;;;;5096294;28;20516;-71
2022/03/12 09:13:41;;;;;;;8.00;4.13;;;;;;;;;;5095930;28;20458;-71
2022/03/12 09:16:26;;;;;;;7.77;4.20;;;;;;;;;;5096651;28;20458;-70
2022/03/12 09:19:01;;;;;;;13.80;4.60;;;;;;;;;;5115234;28;20465;-72
2022/03/12 09:21:43;;;;;;;6.70;4.43;;;;;;;;;;5115678;28;20538;-71
2022/03/12 09:24:14;;;;;;;5.60;3.53;;;;;;;;;;5116719;28;20455;-72
2022/03/12 09:26:43;;;;;;;7.57;4.30;;;;;;;;;;5116382;28;20447;-71
2022/03/12 09:29:15;;;;;;;8.50;3.40;;;;;;;;;;5114423;28;20458;-71
2022/03/12 09:31:55;;;;;;;11.20;6.17;;;;;;;;;;5103143;28;20503;-72
2022/03/12 09:34:29;;;;;;;6.67;4.43;;;;;;;;;;5096073;28;20452;-72
2022/03/12 09:37:03;;;;;;;8.30;5.30;;;;;;;;;;5095820;28;20451;-71
2022/03/12 09:39:44;;;;;;;7.00;4.10;;;;;;;;;;5096416;28;20945;-72
2022/03/12 09:42:12;;;;;;;7.00;3.47;;;;;;;;;;5114306;28;20550;-71
2022/03/12 09:44:45;;;;;;;7.87;4.27;;;;;;;;;;5116199;28;20455;-73
2022/03/12 09:47:17;;;;;;;5.47;3.73;;;;;;;;;;5115602;28;20471;-72
2022/03/12 09:49:46;;;;;;;6.00;3.80;;;;;;;;;;5115022;28;20483;-72
2022/03/12 09:52:22;;;;;;;10.00;4.83;;;;;;;;;;5114801;28;20551;-72
2022/03/12 09:54:51;;;;;;;5.23;3.70;;;;;;;;;;5099013;28;20543;-71
2022/03/12 09:57:22;;;;;;;8.00;4.03;;;;;;;;;;5094327;28;20451;-71
2022/03/12 09:59:53;;;;;;;6.10;4.67;;;;;;;;;;5094460;28;20459;-72
2022/03/12 10:02:28;;;;;;;24.13;22.30;;;;;;;;;;5104175;28;21009;-72
2022/03/12 10:05:01;;;;;;;169.00;97.93;;;;;;;;;;5114573;28;20539;-72
2022/03/12 10:07:31;;;;;;;228.07;104.07;;;;;;;;;;5114366;28;20445;-71
2022/03/12 10:10:03;;;;;;;7.70;4.80;;;;;;;;;;5111473;28;20459;-72
2022/03/12 10:15:28;;;;;;;6.77;3.60;;;;;;;;;;5094341;28;20424;-72
2022/03/12 10:18:23;;;;;;;5.97;3.63;;;;;;;;;;5094452;28;20587;-72
2022/03/12 10:21:07;;;;;;;6.37;4.03;;;;;;;;;;5008783;28;20763;-74
2022/03/12 10:23:37;;;;;;;5.47;3.70;;;;;;;;;;5073253;28;20448;-73
2022/03/12 10:26:09;;;;;;;7.20;4.70;;;;;;;;;;5094188;28;20522;-73
2022/03/12 10:28:40;;;;;;;5.03;3.50;;;;;;;;;;5105969;28;20443;-71
2022/03/12 10:31:09;;;;;;;7.40;4.50;;;;;;;;;;5114080;28;20462;-72
2022/03/12 10:33:38;;;;;;;7.60;4.03;;;;;;;;;;5114681;28;20455;-71
2022/03/12 10:36:29;;;;;;;8.07;4.50;;;;;;;;;;5114144;28;20458;-71
2022/03/12 10:39:18;;;;;;;7.40;4.67;;;;;;;;;;5105644;28;20525;-73
2022/03/12 10:41:46;;;;;;;7.53;4.00;;;;;;;;;;5114523;28;21114;-72
2022/03/12 10:44:20;;;;;;;9.67;4.10;;;;;;;;;;5112643;28;20453;-72
2022/03/12 10:46:50;;;;;;;9.10;3.60;;;;;;;;;;5114838;28;20465;-71
2022/03/12 10:49:25;;;;;;;5.83;4.83;;;;;;;;;;5114004;28;20454;-73
2022/03/12 10:52:04;;;;;;;8.67;6.10;;;;;;;;;;5113989;28;20482;-72
2022/03/12 10:58:22;;;;;;;7.20;4.60;;;;;;;;;;5105839;28;20447;-73
2022/03/12 11:01:05;;;;;;;6.70;3.70;;;;;;;;;;5113262;28;20866;-73
2022/03/12 11:03:49;;;;;;;5.80;3.60;;;;;;;;;;5106169;28;20463;-73
2022/03/12 11:06:29;;;;;;;6.80;3.80;;;;;;;;;;5097750;28;20485;-73
2022/03/12 11:09:32;;;;;;;4.80;3.50;;;;;;;;;;5097408;28;20534;-72
2022/03/12 11:12:16;;;;;;;7.97;3.50;;;;;;;;;;5109478;28;20478;-72
2022/03/12 11:14:45;;;;;;;5.70;3.40;;;;;;;;;;5114616;28;20446;-72
2022/03/12 11:20:22;;;;;;;5.20;4.10;;;;;;;;;;5113395;28;20458;-71
2022/03/12 11:22:55;;;;;;;8.80;4.83;;;;;;;;;;5115544;28;20441;-72
2022/03/12 11:25:29;;;;;;;6.70;4.70;;;;;;;;;;5101956;27;20709;-72
2022/03/12 11:28:21;;;;;;;8.67;4.80;;;;;;;;;;5097019;27;20546;-73
2022/03/12 11:37:04;;;;;;;6.70;4.50;;;;;;;;;;5115295;27;20530;-72
2022/03/12 11:39:56;;;;;;;8.70;5.37;;;;;;;;;;5117722;27;20490;-72
2022/03/12 11:42:38;;;;;;;4.87;3.53;;;;;;;;;;5117752;27;20438;-71
2022/03/12 11:45:14;;;;;;;8.57;5.63;;;;;;;;;;5116739;27;20451;-71
2022/03/12 11:47:56;;;;;;;6.83;4.03;;;;;;;;;;5114740;27;20908;-73
2022/03/12 11:50:29;;;;;;;9.50;4.37;;;;;;;;;;5111152;27;20550;-74
2022/03/12 11:53:23;;;;;;;6.47;4.00;;;;;;;;;;5114665;27;20483;-72
2022/03/12 11:56:23;;;;;;;;;;;;;;;;;;;;;
2022/03/12 11:59:12;;;;;;;7.40;4.23;;;;;;;;;;5102819;28;20465;-74
2022/03/12 12:02:07;;;;;;;7.23;4.53;;;;;;;;;;5098741;28;20562;-71
2022/03/12 12:07:59;;;;;;;9.77;5.53;;;;;;;;;;5116260;27;20445;-72
2022/03/12 12:13:40;;;;;;;6.50;5.10;;;;;;;;;;5114699;27;20466;-72
2022/03/12 12:16:22;;;;;;;4.80;3.00;;;;;;;;;;5112753;28;20477;-72
2022/03/12 12:19:11;;;;;;;7.20;4.60;;;;;;;;;;5098433;28;20451;-71
2022/03/12 12:21:54;;;;;;;7.43;4.80;;;;;;;;;;5096236;27;20901;-73
2022/03/12 12:24:43;;;;;;;9.50;6.30;;;;;;;;;;5116700;27;20538;-73
2022/03/12 12:27:13;;;;;;;6.23;4.10;;;;;;;;;;5116070;27;20459;-71
2022/03/12 12:30:05;;;;;;;5.63;3.73;;;;;;;;;;5107178;28;20742;-71
2022/03/12 12:35:45;;;;;;;11.27;7.20;;;;;;;;;;5009430;28;20461;-72
2022/03/12 12:38:22;;;;;;;10.33;5.63;;;;;;;;;;5014282;28;20457;-73
2022/03/12 12:40:56;;;;;;;7.67;6.00;;;;;;;;;;5015207;28;20815;-72
2022/03/12 12:43:31;;;;;;;6.17;4.07;;;;;;;;;;5028457;28;20598;-72
2022/03/12 12:46:17;;;;;;;6.72;4.43;;;;;;;;;;5095710;28;20460;-73
2022/03/12 12:51:30;;;;;;;10.20;5.73;;;;;;;;;;5094152;28;20307;-73
2022/03/12 13:03:04;;;;;;;7.73;3.90;;;;;;;;;;5094862;28;20460;-74
2022/03/12 13:08:46;;;;;;;11.33;4.97;;;;;;;;;;5050794;28;21054;-72
2022/03/12 13:11:43;;;;;;;6.23;4.37;;;;;;;;;;5090012;28;20477;-71
2022/03/12 13:14:38;;;;;;;21.83;8.63;;;;;;;;;;5072032;28;20647;-71
2022/03/12 13:17:33;;;;;;;7.82;4.40;;;;;;;;;;5091786;28;20934;-72
2022/03/12 13:20:05;;;;;;;7.73;5.70;;;;;;;;;;5095172;28;20213;-72
2022/03/12 13:22:51;;;;;;;7.77;4.40;;;;;;;;;;5109204;27;20462;-73
2022/03/12 13:25:25;;;;;;;7.87;4.93;;;;;;;;;;5115193;27;20462;-71
2022/03/12 13:28:01;;;;;;;7.57;4.03;;;;;;;;;;5111849;27;20548;-72
2022/03/12 13:33:49;;;;;;;11.50;6.17;;;;;;;;;;5071692;27;20551;-71
2022/03/12 13:36:23;;;;;;;11.20;6.13;;;;;;;;;;5112242;28;20486;-72
2022/03/12 13:38:53;;;;;;;6.63;4.10;;;;;;;;;;5110410;27;20466;-72
2022/03/12 13:41:25;;;;;;;6.30;3.93;;;;;;;;;;5107000;27;20490;-72
2022/03/12 13:44:07;;;;;;;6.40;4.53;;;;;;;;;;5106654;27;20462;-71
2022/03/12 13:46:38;;;;;;;6.00;4.60;;;;;;;;;;5115155;27;20209;-72
2022/03/12 13:49:16;;;;;;;6.10;4.10;;;;;;;;;;5114801;28;20463;-72
2022/03/12 13:51:46;;;;;;;7.07;4.63;;;;;;;;;;5114922;28;20455;-72
2022/03/12 13:54:30;;;;;;;9.40;6.27;;;;;;;;;;5114362;28;20486;-72
2022/03/12 13:57:05;;;;;;;7.07;4.60;;;;;;;;;;5114689;27;20459;-72
2022/03/12 13:59:42;;;;;;;7.00;4.03;;;;;;;;;;5115048;27;20462;-72
2022/03/12 14:02:16;;;;;;;7.33;4.63;;;;;;;;;;5113117;27;20499;-72
2022/03/12 14:04:48;;;;;;;6.40;4.43;;;;;;;;;;5114508;28;20451;-73
2022/03/12 14:07:18;;;;;;;7.80;4.83;;;;;;;;;;5108688;27;20467;-74
2022/03/12 14:09:50;;;;;;;5.73;3.43;;;;;;;;;;5107925;27;20458;-70
2022/03/12 14:12:25;;;;;;;7.90;4.47;;;;;;;;;;5113884;27;20469;-72
2022/03/12 14:15:13;;;;;;;7.80;3.60;;;;;;;;;;5115084;28;20533;-71
2022/03/12 14:17:53;;;;;;;6.23;4.53;;;;;;;;;;5100084;28;20466;-73
2022/03/12 14:20:28;;;;;;;7.77;4.67;;;;;;;;;;5112448;27;20465;-72
2022/03/12 14:23:01;;;;;;;13.80;6.67;;;;;;;;;;5114107;27;20454;-74
2022/03/12 14:25:40;;;;;;;6.67;4.50;;;;;;;;;;5115142;28;20453;-71
2022/03/12 14:28:21;;;;;;;6.10;4.60;;;;;;;;;;5114010;28;20442;-72
2022/03/12 14:30:51;;;;;;;8.30;4.03;;;;;;;;;;5113284;27;20797;-72
2022/03/12 14:48:21;;;;;;;6.70;4.20;;;;;;;;;;5112716;28;20456;-71
2022/03/12 14:51:12;;;;;;;8.90;3.33;;;;;;;;;;5105580;28;20483;-72
2022/03/12 14:53:51;;;;;;;5.00;4.20;;;;;;;;;;5093482;28;20490;-71
2022/03/12 14:56:25;;;;;;;9.40;3.90;;;;;;;;;;5092754;28;20469;-71
2022/03/12 14:59:09;;;;;;;5.50;3.50;;;;;;;;;;5092612;28;20563;-71
2022/03/12 15:01:40;;;;;;;5.80;3.93;;;;;;;;;;5101680;28;20455;-73
2022/03/12 15:04:10;;;;;;;6.97;4.23;;;;;;;;;;5093862;28;20467;-72
2022/03/12 15:06:41;;;;;;;5.60;4.13;;;;;;;;;;5093373;28;20461;-71
2022/03/12 15:09:09;;;;;;;8.40;5.03;;;;;;;;;;5093772;28;21004;-73
2022/03/12 15:11:42;;;;;;;6.07;4.30;;;;;;;;;;5099773;28;20475;-71
2022/03/12 15:14:11;;;;;;;7.07;4.10;;;;;;;;;;5111529;28;20764;-72
2022/03/12 15:16:48;;;;;;;7.47;4.70;;;;;;;;;;5105108;28;20565;-72
2022/03/12 15:19:32;;;;;;;6.70;4.37;;;;;;;;;;5111320;28;20461;-71
2022/03/12 15:22:00;;;;;;;6.80;4.43;;;;;;;;;;5113189;28;20470;-72
2022/03/12 15:24:37;;;;;;;6.70;4.30;;;;;;;;;;5098726;28;20466;-71
2022/03/12 15:27:10;;;;;;;9.53;4.80;;;;;;;;;;5093519;28;20455;-72
2022/03/12 15:29:41;;;;;;;7.10;4.00;;;;;;;;;;5109544;28;20447;-71
2022/03/12 15:32:34;;;;;;;7.53;3.60;;;;;;;;;;5114416;28;20759;-71
2022/03/12 15:35:06;;;;;;;5.20;3.67;;;;;;;;;;5074360;28;20746;-71
2022/03/12 15:37:44;;;;;;;6.27;3.57;;;;;;;;;;5093703;28;20520;-72
2022/03/12 15:40:16;;;;;;;7.20;5.03;;;;;;;;;;5092508;28;21200;-72
2022/03/12 15:42:58;;;;;;;5.20;3.70;;;;;;;;;;5102263;28;20209;-72
2022/03/12 15:45:47;;;;;;;6.07;4.07;;;;;;;;;;5101440;28;20465;-72
2022/03/12 15:48:27;;;;;;;7.40;4.60;;;;;;;;;;5103463;28;20455;-72
2022/03/12 15:51:14;;;;;;;5.10;3.57;;;;;;;;;;5112539;28;20442;-71
2022/03/12 15:54:12;;;;;;;6.33;3.67;;;;;;;;;;5112431;28;20554;-73
2022/03/12 15:56:53;;;;;;;5.27;3.57;;;;;;;;;;5108427;28;20566;-72
2022/03/12 16:02:12;;;;;;;6.10;4.63;;;;;;;;;;5112079;28;20446;-72
2022/03/12 16:04:43;;;;;;;6.50;3.50;;;;;;;;;;5117045;27;20737;-71
2022/03/12 16:07:11;;;;;;;7.30;3.87;;;;;;;;;;5117141;27;20454;-71
2022/03/12 16:09:41;;;;;;;7.13;4.40;;;;;;;;;;5115286;27;20469;-72
2022/03/12 16:12:18;;;;;;;5.20;3.40;;;;;;;;;;5117723;27;20442;-72
2022/03/12 16:14:49;;;;;;;5.60;4.00;;;;;;;;;;5116496;27;20519;-71
2022/03/12 16:17:18;;;;;;;7.27;3.90;;;;;;;;;;5110469;28;20929;-71
2022/03/12 16:19:57;;;;;;;11.10;5.43;;;;;;;;;;5097086;28;20468;-71
2022/03/12 16:22:53;;;;;;;17.77;9.70;;;;;;;;;;5096141;28;20444;-72